»·PEaware :: DAL213 KASE-KTEX

DAL213 :: KASE-KTEX

FLIGHT INFORMATION

Flight Status: Arrived
Operator:
Delta Air Lines
More flights by this operator :: More flights under this callsign
Pilot: Nico L. (9332)
Aircraft: BOEING 737-800
(B738)
More flights by this aircraft type
Origin: KASE Aspen-Pitkin Co/Sardy
United States
Destination: KTEX Telluride Regl
United States
More flights between these airports :: More routes between these airports
Route: +LINDZ9 JNC ETL
File this flight plan on PilotEdge
Remarks: Live Streaming on Twitch "DAL213" and YT
Altitude:
(Current/Filed)
18,000ft
Speed:
(Current/Filed)
400kts
Departed: 20-Aug-19 10:59 AM
Arrived: 20-Aug-19 11:25 AM
Distance/Time
Traveled:
90nm/0:25
Distance/Time
To Go:
Arrived

Flight Plot

Page will automatically refresh every two minutes.

Flight plan parsing failed; only flown route is shown


Map Options




Map Legend


Flown Route
Filed Route
Departure Airport
Arrival Airport
Navaid (VOR, NDB)
Fix

Horizontal Profiles

Position Reports

Time Latitude Longitude Heading Altitude Ground
Speed
20-Aug-19 10:45 39.218517 -106.864219 159 7745ft 0kts
20-Aug-19 10:46 39.218517 -106.864219 159 7745ft 0kts
20-Aug-19 10:47 39.218517 -106.864219 159 7745ft 0kts
20-Aug-19 10:48 39.218517 -106.864219 159 7745ft 0kts
20-Aug-19 10:49 39.218517 -106.864219 159 7745ft 0kts
20-Aug-19 10:50 39.218517 -106.864219 159 7745ft 0kts
20-Aug-19 10:51 39.218517 -106.864219 159 7745ft 0kts
20-Aug-19 10:52 39.218517 -106.864219 159 7745ft 0kts
20-Aug-19 10:53 39.218517 -106.864219 159 7745ft 0kts
20-Aug-19 10:54 39.218517 -106.864219 159 7745ft 0kts
20-Aug-19 10:55 39.218132 -106.864386 242 7745ft 9kts
20-Aug-19 10:56 39.214839 -106.863733 159 7745ft 14kts
20-Aug-19 10:57 39.212314 -106.862572 173 7745ft 0kts
20-Aug-19 10:58 39.216358 -106.865652 339 7745ft 91kts
20-Aug-19 10:59 39.260426 -106.881852 348 9328ft 196kts
20-Aug-19 11:00 39.289682 -106.949080 283 11134ft 260kts
20-Aug-19 11:01 39.312557 -107.045764 300 13393ft 311kts
20-Aug-19 11:02 39.370045 -107.139337 292 15816ft 345kts
20-Aug-19 11:03 39.367768 -107.262305 254 18186ft 363kts
20-Aug-19 11:04 39.335772 -107.389190 228 17744ft 373kts
20-Aug-19 11:05 39.242642 -107.441374 194 17669ft 371kts
20-Aug-19 11:06 39.142358 -107.475667 194 17624ft 372kts
20-Aug-19 11:07 39.042366 -107.510094 195 17550ft 372kts
20-Aug-19 11:08 38.942082 -107.544296 195 17527ft 372kts
20-Aug-19 11:09 38.841755 -107.578366 195 17499ft 374kts
20-Aug-19 11:11 38.741382 -107.612314 195 17431ft 373kts
20-Aug-19 11:12 38.640823 -107.646374 195 17370ft 373kts
20-Aug-19 11:13 38.540232 -107.680012 194 17279ft 372kts
20-Aug-19 11:14 38.443134 -107.712176 195 16999ft 332kts
20-Aug-19 11:15 38.359343 -107.741890 197 16168ft 295kts
20-Aug-19 11:16 38.281997 -107.773859 203 15635ft 287kts
20-Aug-19 11:17 38.209268 -107.818783 209 14891ft 295kts
20-Aug-19 11:18 38.140153 -107.871730 213 14386ft 284kts
20-Aug-19 11:19 38.076148 -107.926793 213 13827ft 275kts
20-Aug-19 11:20 38.008589 -107.966919 196 12930ft 259kts
20-Aug-19 11:21 37.940936 -107.976456 171 12022ft 214kts
20-Aug-19 11:22 37.905548 -107.933566 105 11229ft 169kts
20-Aug-19 11:23 37.910456 -107.878674 43 10644ft 159kts
20-Aug-19 11:24 37.948196 -107.884532 291 9446ft 160kts
20-Aug-19 11:25 37.955107 -107.915152 280 9087ft 9kts
20-Aug-19 11:26 37.954586 -107.912612 105 9087ft 15kts
20-Aug-19 11:27 37.953850 -107.908916 102 9087ft 12kts
20-Aug-19 11:28 37.952511 -107.902629 106 9087ft 22kts
20-Aug-19 11:28 37.953461 -107.901227 329 9087ft 4kts
20-Aug-19 11:30 37.953645 -107.901244 113 9087ft 0kts
20-Aug-19 11:31 37.953645 -107.901244 113 9087ft 0kts
20-Aug-19 11:31 37.953645 -107.901244 113 9087ft 0kts
20-Aug-19 11:33 37.953645 -107.901244 113 9087ft 0kts
20-Aug-19 11:33 37.953645 -107.901244 113 9087ft 0kts
20-Aug-19 11:34 37.953645 -107.901244 113 9087ft 0kts
20-Aug-19 11:36 37.953645 -107.901244 113 9087ft 0kts
20-Aug-19 11:36 37.953645 -107.901244 113 9087ft 0kts
20-Aug-19 11:37 37.953645 -107.901244 113 9087ft 0kts
20-Aug-19 11:38 37.952893 -107.898959 104 9087ft 28kts

Navigation Log

Ident Type
Flight plan parsing failed, navigation log unavailable